Time;durP1;ratioP1;P1;durP2;ratioP2;P2;SDS_P1;SDS_P2;PMS_P1;PMS_P2;Temp;Humidity;BMP_temperature;BMP_pressure;BME280_temperature;BME280_humidity;BME280_pressure;Samples;Min_cycle;Max_cycle;Signal;HPM_P1;HPM_P2
2021/06/12 00:00:14;;;;;;;14.98;12.52;;;15.80;99.90;;;;;;4995243;28;20049;-91
2021/06/12 00:02:41;;;;;;;14.50;13.07;;;15.80;99.90;;;;;;4991672;28;20101;-91
2021/06/12 00:05:12;;;;;;;17.17;13.45;;;15.80;99.90;;;;;;4995634;28;20109;-93
2021/06/12 00:07:42;;;;;;;14.52;13.02;;;15.90;99.90;;;;;;4983377;28;20502;-92
2021/06/12 00:10:12;;;;;;;15.80;14.05;;;15.80;99.90;;;;;;4996612;28;20045;-93
2021/06/12 00:12:39;;;;;;;15.45;13.55;;;15.80;99.90;;;;;;4979046;28;20085;-91
2021/06/12 00:15:11;;;;;;;16.27;14.48;;;15.80;99.90;;;;;;4976304;28;20130;-90
2021/06/12 00:17:38;;;;;;;15.98;13.52;;;15.70;99.90;;;;;;4991772;28;20133;-91
2021/06/12 00:20:09;;;;;;;15.43;13.85;;;15.70;99.90;;;;;;4992227;28;20054;-90
2021/06/12 00:22:36;;;;;;;15.27;13.57;;;15.60;99.90;;;;;;4991998;28;20125;-89
2021/06/12 00:25:07;;;;;;;15.63;14.00;;;15.60;99.90;;;;;;4991749;28;20085;-92
2021/06/12 00:27:33;;;;;;;15.48;13.85;;;15.70;99.90;;;;;;4991235;28;20056;-90
2021/06/12 00:30:00;;;;;;;17.48;14.82;;;15.70;99.90;;;;;;4991907;28;20432;-91
2021/06/12 00:32:28;;;;;;;15.00;13.50;;;15.70;99.90;;;;;;4974372;28;20056;-91
2021/06/12 00:34:57;;;;;;;15.20;13.07;;;15.80;99.90;;;;;;4991161;28;20129;-91
2021/06/12 00:37:28;;;;;;;15.93;13.00;;;15.90;99.90;;;;;;4992225;28;20042;-91
2021/06/12 00:39:56;;;;;;;16.10;13.50;;;15.90;99.90;;;;;;4992592;28;20089;-91
2021/06/12 00:42:22;;;;;;;15.82;14.07;;;15.90;99.90;;;;;;4975523;28;20491;-89
2021/06/12 00:44:49;;;;;;;15.68;13.38;;;15.80;99.90;;;;;;4991504;28;20046;-90
2021/06/12 00:47:16;;;;;;;15.38;13.70;;;15.80;99.90;;;;;;4991416;28;20085;-89
2021/06/12 00:49:43;;;;;;;19.80;14.43;;;15.70;99.90;;;;;;4975814;28;20141;-90
2021/06/12 00:52:12;;;;;;;15.65;14.05;;;15.80;99.90;;;;;;4984619;28;20097;-92
2021/06/12 00:54:39;;;;;;;14.85;13.13;;;15.70;99.90;;;;;;4979762;28;20438;-92
2021/06/12 00:57:06;;;;;;;17.73;14.98;;;15.70;99.90;;;;;;4966812;28;20375;-93
2021/06/12 00:59:33;;;;;;;16.40;14.70;;;15.60;99.90;;;;;;5002061;28;20077;-91
2021/06/12 01:02:00;;;;;;;15.93;14.43;;;15.60;99.90;;;;;;4998343;28;20078;-90
2021/06/12 01:04:29;;;;;;;17.50;14.40;;;15.60;99.90;;;;;;4996310;28;20102;-92
2021/06/12 01:06:58;;;;;;;18.45;14.68;;;15.60;99.90;;;;;;4991769;28;20074;-90
2021/06/12 01:09:25;;;;;;;15.93;14.25;;;15.70;99.90;;;;;;4992868;28;20057;-92
2021/06/12 01:12:11;;;;;;;19.08;14.85;;;15.60;99.90;;;;;;4976557;28;20487;-90
2021/06/12 01:14:47;;;;;;;16.60;14.00;;;15.40;99.90;;;;;;4990905;28;20046;-90
2021/06/12 01:17:44;;;;;;;17.45;15.60;;;15.40;99.90;;;;;;4991844;28;20090;-90
2021/06/12 01:20:49;;;;;;;16.80;15.13;;;15.30;99.90;;;;;;4965126;28;21012;-91
2021/06/12 01:23:27;;;;;;;16.33;14.70;;;15.20;99.90;;;;;;4994371;28;20052;-92
2021/06/12 01:26:06;;;;;;;19.55;15.63;;;15.20;99.90;;;;;;4994813;28;20042;-89
2021/06/12 01:29:18;;;;;;;16.95;14.68;;;15.30;99.90;;;;;;4986929;28;20053;-90
2021/06/12 01:31:46;;;;;;;16.48;14.88;;;15.30;99.90;;;;;;4959864;28;20091;-91
2021/06/12 01:34:15;;;;;;;17.38;15.55;;;15.20;99.90;;;;;;4977471;28;20108;-90
2021/06/12 01:36:43;;;;;;;16.60;15.00;;;15.30;99.90;;;;;;4998877;28;20054;-90
2021/06/12 01:39:11;;;;;;;17.17;14.65;;;15.30;99.90;;;;;;4968522;28;20050;-90
2021/06/12 01:41:40;;;;;;;16.63;14.88;;;15.30;99.90;;;;;;5006473;28;20084;-89
2021/06/12 01:44:09;;;;;;;17.40;13.80;;;15.40;99.90;;;;;;5001975;28;20125;-90
2021/06/12 01:46:38;;;;;;;15.43;14.00;;;15.40;99.90;;;;;;4996579;28;20050;-91
2021/06/12 01:49:06;;;;;;;15.98;14.23;;;15.40;99.90;;;;;;4982420;28;20117;-89
2021/06/12 01:51:34;;;;;;;15.95;14.35;;;15.40;99.90;;;;;;4996279;28;20718;-92
2021/06/12 01:54:02;;;;;;;18.65;15.35;;;15.40;99.90;;;;;;4979120;28;20046;-90
2021/06/12 01:56:32;;;;;;;16.25;14.02;;;15.40;99.90;;;;;;4978276;28;20082;-90
2021/06/12 01:58:59;;;;;;;15.35;13.75;;;15.40;99.90;;;;;;4995932;28;20057;-88
2021/06/12 02:01:27;;;;;;;15.88;14.27;;;15.30;99.90;;;;;;4995953;28;20108;-89
2021/06/12 02:03:55;;;;;;;19.30;14.70;;;15.30;99.90;;;;;;4994658;28;20042;-90
2021/06/12 02:06:23;;;;;;;15.20;13.70;;;15.20;99.90;;;;;;4997620;28;20424;-90
2021/06/12 02:08:51;;;;;;;16.05;14.38;;;15.20;99.90;;;;;;4980042;28;20133;-90
2021/06/12 02:11:22;;;;;;;16.73;14.95;;;15.20;99.90;;;;;;4978465;28;20064;-92
2021/06/12 02:13:49;;;;;;;15.32;13.45;;;15.20;99.90;;;;;;4996499;28;20081;-89
2021/06/12 02:16:20;;;;;;;15.38;13.95;;;15.20;99.90;;;;;;4996860;28;20109;-91
2021/06/12 02:18:48;;;;;;;18.27;13.93;;;15.20;99.90;;;;;;5000957;28;20382;-91
2021/06/12 02:21:16;;;;;;;16.00;14.38;;;15.30;99.90;;;;;;5000797;28;20128;-90
2021/06/12 02:23:44;;;;;;;15.73;14.10;;;15.30;99.90;;;;;;4980333;28;20050;-90
2021/06/12 02:26:13;;;;;;;17.23;14.10;;;15.30;99.90;;;;;;4996109;28;20391;-88
2021/06/12 02:28:41;;;;;;;16.50;14.82;;;15.20;99.90;;;;;;4994742;28;20050;-89
2021/06/12 02:31:17;;;;;;;19.17;14.73;;;15.30;99.90;;;;;;4995426;28;20074;-90
2021/06/12 02:33:47;;;;;;;16.05;14.45;;;15.30;99.90;;;;;;4986059;28;20062;-92
2021/06/12 02:36:15;;;;;;;15.50;14.00;;;15.30;99.90;;;;;;4983243;28;20162;-92
2021/06/12 02:38:42;;;;;;;16.83;13.82;;;15.40;99.90;;;;;;4983348;28;20402;-90
2021/06/12 02:41:09;;;;;;;18.17;14.43;;;15.50;99.90;;;;;;5004037;28;20046;-90
2021/06/12 02:43:36;;;;;;;15.82;14.23;;;15.50;99.90;;;;;;4999207;28;20147;-89
2021/06/12 02:46:05;;;;;;;17.73;14.55;;;15.50;99.90;;;;;;4981909;28;20475;-91
2021/06/12 02:48:33;;;;;;;15.27;13.65;;;15.50;99.90;;;;;;4994977;28;20061;-90
2021/06/12 02:51:03;;;;;;;18.00;14.20;;;15.60;99.90;;;;;;4994546;28;20074;-90
2021/06/12 02:53:36;;;;;;;16.75;14.95;;;15.50;99.90;;;;;;4994592;28;20081;-87
2021/06/12 02:56:07;;;;;;;16.35;14.07;;;15.50;99.90;;;;;;4993620;28;20055;-91
2021/06/12 02:58:36;;;;;;;15.75;14.10;;;15.50;99.90;;;;;;4993789;28;20076;-90
2021/06/12 03:01:05;;;;;;;17.98;13.57;;;15.40;99.90;;;;;;4976880;28;20046;-89
2021/06/12 03:03:33;;;;;;;15.20;13.70;;;15.40;99.90;;;;;;4992213;28;20646;-90
2021/06/12 03:06:03;;;;;;;14.82;13.32;;;15.40;99.90;;;;;;4993494;28;20042;-90
2021/06/12 03:08:37;;;;;;;16.35;14.85;;;15.30;99.90;;;;;;4993686;28;20052;-90
2021/06/12 03:11:08;;;;;;;15.55;14.13;;;15.20;99.90;;;;;;4993970;28;20129;-89
2021/06/12 03:13:43;;;;;;;16.58;14.70;;;15.20;99.90;;;;;;4975310;28;20057;-91
2021/06/12 03:16:14;;;;;;;23.00;15.65;;;15.20;99.90;;;;;;4995269;28;20129;-90
2021/06/12 03:18:47;;;;;;;17.60;15.80;;;15.10;99.90;;;;;;4993634;28;20046;-90
2021/06/12 03:21:22;;;;;;;17.83;15.88;;;15.10;99.90;;;;;;4997749;28;20478;-92
2021/06/12 03:23:50;;;;;;;25.23;15.95;;;15.00;99.90;;;;;;4994795;28;20050;-90
2021/06/12 03:26:19;;;;;;;21.00;16.88;;;14.90;99.90;;;;;;4975547;28;20101;-92
2021/06/12 03:28:47;;;;;;;19.60;16.50;;;14.90;99.90;;;;;;4993140;28;20081;-90
2021/06/12 03:31:15;;;;;;;19.88;16.08;;;14.80;99.90;;;;;;4992722;28;20114;-92
2021/06/12 03:33:42;;;;;;;17.17;15.40;;;14.80;99.90;;;;;;4975313;28;20534;-92
2021/06/12 03:36:10;;;;;;;17.77;15.98;;;14.80;99.90;;;;;;4993835;28;20363;-89
2021/06/12 03:38:39;;;;;;;19.02;17.05;;;14.70;99.90;;;;;;4992148;28;20046;-91
2021/06/12 03:41:08;;;;;;;17.88;15.68;;;14.70;99.90;;;;;;4975133;28;20468;-93
2021/06/12 03:43:36;;;;;;;19.05;17.05;;;14.70;99.90;;;;;;4992510;28;20101;-92
2021/06/12 03:46:04;;;;;;;19.08;17.02;;;14.70;99.90;;;;;;4973848;28;20407;-91
2021/06/12 03:48:32;;;;;;;20.48;17.40;;;14.60;99.90;;;;;;4988230;28;20050;-91
2021/06/12 03:51:00;;;;;;;20.35;17.35;;;14.60;99.90;;;;;;4992940;28;20125;-92
2021/06/12 03:53:43;;;;;;;19.15;17.25;;;14.60;99.90;;;;;;4993610;28;20068;-90
2021/06/12 03:56:21;;;;;;;22.42;18.02;;;14.60;99.90;;;;;;4980034;28;20053;-91
2021/06/12 03:58:52;;;;;;;22.00;16.92;;;14.60;99.90;;;;;;4995347;28;20114;-90
2021/06/12 04:01:19;;;;;;;19.38;17.33;;;14.70;99.90;;;;;;4995597;28;20078;-90
2021/06/12 04:03:47;;;;;;;18.98;17.02;;;14.70;99.90;;;;;;4993683;28;20061;-91
2021/06/12 04:06:16;;;;;;;20.52;18.15;;;14.70;99.90;;;;;;4976356;28;20042;-91
2021/06/12 04:08:44;;;;;;;22.75;17.85;;;14.80;99.90;;;;;;4991257;28;20054;-91
2021/06/12 04:11:16;;;;;;;21.25;17.50;;;14.80;99.90;;;;;;4957760;28;20068;-91
2021/06/12 04:13:43;;;;;;;21.00;17.08;;;14.70;99.90;;;;;;4974434;28;20133;-91
2021/06/12 04:16:11;;;;;;;21.05;18.00;;;14.80;99.90;;;;;;4973953;28;20042;-91
2021/06/12 04:18:40;;;;;;;19.17;17.17;;;14.80;99.90;;;;;;4993703;28;20050;-90
2021/06/12 04:21:07;;;;;;;19.80;16.75;;;14.80;99.90;;;;;;4975641;28;20129;-92
2021/06/12 04:23:34;;;;;;;20.63;17.95;;;14.70;99.90;;;;;;4974716;28;20138;-90
2021/06/12 04:26:01;;;;;;;19.73;17.73;;;14.80;99.90;;;;;;4974174;28;20050;-92
2021/06/12 04:28:27;;;;;;;19.95;17.13;;;14.80;99.90;;;;;;4974644;28;20145;-90
2021/06/12 04:30:54;;;;;;;18.25;16.27;;;14.70;99.90;;;;;;4991906;28;20145;-92
2021/06/12 04:33:21;;;;;;;19.20;17.20;;;14.70;99.90;;;;;;4991155;28;20125;-92
2021/06/12 04:35:48;;;;;;;23.48;18.10;;;14.70;99.90;;;;;;4990644;28;20054;-92
2021/06/12 04:38:15;;;;;;;21.58;18.33;;;14.70;99.90;;;;;;4990669;28;20104;-92
2021/06/12 04:40:45;;;;;;;20.55;18.40;;;14.60;99.90;;;;;;4966720;28;20077;-91
2021/06/12 04:43:14;;;;;;;21.38;17.55;;;14.60;99.90;;;;;;4990836;28;20053;-92
2021/06/12 04:45:41;;;;;;;19.67;17.13;;;14.60;99.90;;;;;;4977525;28;20054;-92
2021/06/12 04:48:10;;;;;;;18.15;16.25;;;14.70;99.90;;;;;;4991073;28;20050;-92
2021/06/12 04:50:38;;;;;;;17.55;15.68;;;14.80;99.90;;;;;;4974385;28;20073;-94
2021/06/12 04:53:09;;;;;;;17.92;16.10;;;15.00;99.90;;;;;;4973669;28;20046;-91
2021/06/12 04:55:38;;;;;;;17.15;15.45;;;15.20;99.90;;;;;;4991100;28;20050;-92
2021/06/12 04:58:06;;;;;;;17.30;14.82;;;15.30;99.90;;;;;;4959967;28;20133;-92
2021/06/12 05:00:33;;;;;;;16.58;13.82;;;15.50;99.90;;;;;;4992115;28;20054;-93
2021/06/12 05:03:03;;;;;;;15.63;14.05;;;15.60;99.90;;;;;;4991497;28;20042;-91
2021/06/12 05:05:30;;;;;;;15.88;14.38;;;15.70;99.90;;;;;;4985861;28;20057;-92
2021/06/12 05:07:59;;;;;;;15.60;13.32;;;15.80;99.90;;;;;;4974176;28;20181;-90
2021/06/12 05:10:26;;;;;;;17.10;13.85;;;15.90;99.90;;;;;;4990849;28;20050;-92
2021/06/12 05:12:53;;;;;;;16.08;13.75;;;16.00;99.90;;;;;;4990747;28;20133;-91
2021/06/12 05:15:28;;;;;;;14.48;12.95;;;16.20;99.90;;;;;;4991116;28;20081;-92
2021/06/12 05:17:57;;;;;;;16.13;12.20;;;16.30;99.90;;;;;;4958632;28;20125;-93
2021/06/12 05:20:27;;;;;;;15.73;12.90;;;16.50;99.90;;;;;;4974789;28;20133;-92
2021/06/12 05:22:54;;;;;;;13.63;12.32;;;16.60;99.90;;;;;;4991985;28;20093;-91
2021/06/12 05:25:22;;;;;;;15.30;12.30;;;16.60;99.90;;;;;;4990011;28;20113;-92
2021/06/12 05:27:52;;;;;;;13.25;11.90;;;16.70;99.90;;;;;;4978020;28;20059;-91
2021/06/12 05:30:20;;;;;;;13.20;11.48;;;16.70;99.90;;;;;;4990976;28;20050;-90
2021/06/12 05:32:47;;;;;;;13.13;11.77;;;16.80;99.90;;;;;;4990670;28;20046;-92
2021/06/12 05:35:14;;;;;;;12.35;10.90;;;16.90;99.90;;;;;;4977197;28;20046;-93
2021/06/12 05:37:42;;;;;;;11.32;10.13;;;17.10;99.90;;;;;;4978805;28;20054;-91
2021/06/12 05:40:10;;;;;;;11.68;10.50;;;17.20;99.90;;;;;;4998228;28;20084;-92
2021/06/12 05:42:38;;;;;;;11.38;10.27;;;17.40;99.90;;;;;;4997087;28;20047;-91
2021/06/12 05:45:07;;;;;;;12.93;10.15;;;17.50;99.90;;;;;;4994967;28;20050;-92
2021/06/12 05:47:34;;;;;;;15.23;9.63;;;17.70;99.90;;;;;;4984156;28;20113;-92
2021/06/12 05:50:03;;;;;;;12.82;10.35;;;17.80;99.90;;;;;;4986916;28;20046;-92
2021/06/12 05:52:35;;;;;;;13.23;10.32;;;17.90;99.90;;;;;;4995964;28;20091;-92
2021/06/12 05:55:23;;;;;;;14.02;10.15;;;18.00;99.90;;;;;;4976124;28;20076;-91
2021/06/12 05:57:52;;;;;;;12.73;10.38;;;18.20;99.90;;;;;;4997446;28;20046;-92
2021/06/12 06:00:21;;;;;;;12.02;9.95;;;18.40;99.90;;;;;;4996265;28;20333;-91
2021/06/12 06:02:53;;;;;;;11.85;10.50;;;18.50;99.90;;;;;;4988344;28;20051;-91
2021/06/12 06:05:21;;;;;;;12.15;10.88;;;18.60;99.90;;;;;;4993056;28;20069;-93
2021/06/12 06:07:51;;;;;;;11.77;10.50;;;18.70;99.90;;;;;;5001966;28;20396;-91
2021/06/12 06:10:27;;;;;;;13.30;9.68;;;18.90;99.90;;;;;;4987429;28;20050;-92
2021/06/12 06:13:04;;;;;;;13.63;10.00;;;19.10;99.90;;;;;;4972416;28;20062;-92
2021/06/12 06:15:34;;;;;;;12.18;9.73;;;19.40;99.90;;;;;;4985862;28;20065;-91
2021/06/12 06:18:02;;;;;;;10.82;9.63;;;19.60;99.90;;;;;;4996011;28;20090;-93
2021/06/12 06:20:29;;;;;;;12.07;10.50;;;19.60;99.90;;;;;;4991052;28;20058;-92
2021/06/12 06:22:57;;;;;;;12.10;9.80;;;19.60;99.90;;;;;;4971368;28;20448;-92
2021/06/12 06:25:30;;;;;;;13.80;10.38;;;19.80;99.90;;;;;;5001454;28;20054;-92
2021/06/12 06:28:21;;;;;;;11.07;9.98;;;20.00;99.90;;;;;;4996249;28;20047;-92
2021/06/12 06:30:50;;;;;;;9.98;8.90;;;20.20;99.90;;;;;;4997187;28;20056;-93
2021/06/12 06:33:22;;;;;;;12.82;9.35;;;20.50;99.90;;;;;;4995580;28;20070;-91
2021/06/12 06:35:50;;;;;;;13.38;8.32;;;20.80;99.90;;;;;;4969352;28;20071;-95
2021/06/12 06:38:37;;;;;;;11.30;8.07;;;20.90;99.90;;;;;;4999696;28;20046;-92
2021/06/12 06:41:13;;;;;;;9.95;8.40;;;21.10;99.90;;;;;;4986866;28;20054;-92
2021/06/12 06:43:40;;;;;;;11.35;7.18;;;21.30;99.90;;;;;;4952349;28;20057;-91
2021/06/12 06:46:08;;;;;;;8.70;7.57;;;21.40;99.90;;;;;;4999998;28;20113;-91
2021/06/12 06:48:46;;;;;;;9.90;7.47;;;21.50;99.90;;;;;;5000134;28;20046;-93
2021/06/12 06:51:18;;;;;;;8.15;7.28;;;21.60;99.90;;;;;;4973426;28;20057;-92
2021/06/12 06:53:46;;;;;;;8.38;6.50;;;21.80;99.90;;;;;;4997814;28;20065;-93
2021/06/12 06:56:19;;;;;;;8.65;6.80;;;21.80;99.90;;;;;;5001880;28;20047;-92
2021/06/12 06:58:47;;;;;;;7.20;6.53;;;22.00;99.90;;;;;;4997731;28;20050;-91
2021/06/12 07:01:14;;;;;;;7.53;6.72;;;22.20;99.90;;;;;;4997166;28;20117;-91
2021/06/12 07:03:41;;;;;;;7.78;6.45;;;22.40;99.90;;;;;;4996068;28;20125;-92
2021/06/12 07:06:15;;;;;;;6.50;5.90;;;22.60;99.90;;;;;;4980444;28;20479;-91
2021/06/12 07:08:53;;;;;;;8.15;5.78;;;23.10;99.90;;;;;;4993822;28;20066;-92
2021/06/12 07:11:20;;;;;;;8.18;5.32;;;23.60;99.90;;;;;;5000967;28;20054;-92
2021/06/12 07:13:47;;;;;;;7.32;6.47;;;23.70;99.90;;;;;;4988055;28;20049;-94
2021/06/12 07:16:24;;;;;;;8.93;5.53;;;24.00;99.90;;;;;;4982367;28;20100;-92
2021/06/12 07:18:57;;;;;;;8.82;6.20;;;23.90;99.90;;;;;;5004379;28;20106;-93
2021/06/12 07:21:24;;;;;;;5.90;5.30;;;24.00;99.90;;;;;;5000839;28;20129;-93
2021/06/12 07:23:52;;;;;;;6.13;5.53;;;23.90;99.90;;;;;;4993852;28;20496;-92
2021/06/12 07:26:19;;;;;;;7.03;5.85;;;24.40;99.90;;;;;;4993749;28;20359;-92
2021/06/12 07:28:46;;;;;;;8.30;5.38;;;24.40;99.90;;;;;;4988475;28;20058;-92
2021/06/12 07:31:32;;;;;;;5.30;4.80;;;24.70;99.90;;;;;;5004973;28;20077;-92
2021/06/12 07:34:21;;;;;;;8.20;5.53;;;25.20;98.90;;;;;;4988302;28;20086;-92
2021/06/12 07:36:49;;;;;;;6.50;5.20;;;25.30;97.60;;;;;;5001493;28;20058;-93
2021/06/12 07:39:19;;;;;;;5.85;4.65;;;25.20;98.10;;;;;;4987146;28;20065;-91
2021/06/12 07:41:46;;;;;;;5.50;4.15;;;25.70;98.10;;;;;;5002565;28;20113;-92
2021/06/12 07:44:31;;;;;;;6.05;4.20;;;26.30;95.80;;;;;;5002381;28;20102;-92
2021/06/12 07:47:01;;;;;;;5.50;3.75;;;26.70;93.40;;;;;;4969248;28;20133;-92
2021/06/12 07:49:49;;;;;;;5.57;3.72;;;27.10;90.10;;;;;;5000064;28;20065;-94
2021/06/12 07:52:16;;;;;;;4.28;3.47;;;27.40;87.90;;;;;;5009026;28;20061;-91
2021/06/12 07:54:44;;;;;;;5.90;3.20;;;27.60;84.90;;;;;;5005740;28;20120;-94
2021/06/12 07:57:13;;;;;;;3.42;3.10;;;27.70;80.80;;;;;;4986570;28;20968;-92
2021/06/12 07:59:40;;;;;;;5.70;3.10;;;27.90;79.80;;;;;;5003047;28;20105;-93
2021/06/12 08:02:07;;;;;;;5.45;3.30;;;28.00;77.10;;;;;;4984764;28;20467;-91
2021/06/12 08:04:37;;;;;;;5.63;2.80;;;28.30;76.50;;;;;;4999788;28;20050;-92
2021/06/12 08:07:05;;;;;;;3.70;3.28;;;28.80;73.30;;;;;;5000414;28;20043;-93
2021/06/12 08:09:34;;;;;;;3.25;2.80;;;29.30;71.00;;;;;;5002582;28;20101;-92
2021/06/12 08:12:02;;;;;;;5.20;2.88;;;29.60;68.90;;;;;;4985682;28;20071;-92
2021/06/12 08:15:03;;;;;;;;;;;;;;;;;;;;;
2021/06/12 08:17:33;;;;;;;6.38;2.80;;;29.90;61.90;;;;;;5005851;28;20296;-89
2021/06/12 08:20:08;;;;;;;2.63;2.33;;;30.60;59.90;;;;;;5024647;28;20129;-93
2021/06/12 08:25:54;;;;;;;5.82;2.60;;;30.90;60.30;;;;;;5038541;23;20070;-93
2021/06/12 08:28:27;;;;;;;2.72;2.20;;;30.50;60.50;;;;;;5003224;28;20130;-91
2021/06/12 08:31:18;;;;;;;4.80;2.80;;;29.90;58.50;;;;;;5007447;28;20042;-92
2021/06/12 08:34:11;;;;;;;4.13;2.75;;;30.20;59.30;;;;;;5012148;28;20054;-93
2021/06/12 08:36:44;;;;;;;4.50;2.70;;;30.50;57.60;;;;;;4998499;28;20047;-93
2021/06/12 08:39:28;;;;;;;3.15;2.85;;;29.10;59.20;;;;;;5001140;28;20050;-93
2021/06/12 08:42:16;;;;;;;3.28;2.40;;;28.50;60.20;;;;;;4980451;28;20049;-91
2021/06/12 08:44:47;;;;;;;5.25;2.70;;;28.40;63.90;;;;;;5011993;28;20172;-91
2021/06/12 08:47:25;;;;;;;5.35;2.72;;;28.30;63.90;;;;;;5003732;28;20707;-91
2021/06/12 08:50:11;;;;;;;3.28;2.75;;;28.70;64.00;;;;;;5021333;28;20042;-91
2021/06/12 08:52:42;;;;;;;4.07;2.90;;;28.80;62.50;;;;;;4997173;28;20050;-91
2021/06/12 08:55:23;;;;;;;3.22;2.78;;;28.30;63.30;;;;;;5002122;28;20041;-92
2021/06/12 08:57:58;;;;;;;3.20;2.90;;;27.80;64.30;;;;;;5026609;28;20084;-92
2021/06/12 09:00:26;;;;;;;6.25;2.80;;;27.90;73.50;;;;;;5005522;28;20050;-90
2021/06/12 09:03:40;;;;;;;;;;;;;;;;;;;;;
2021/06/12 09:06:14;;;;;;;4.32;2.45;;;29.70;57.10;;;;;;4981561;28;20521;-92
2021/06/12 09:08:42;;;;;;;5.70;2.53;;;29.30;59.90;;;;;;4998623;28;20058;-91
2021/06/12 09:11:12;;;;;;;4.43;2.47;;;28.80;58.20;;;;;;4991712;28;20069;-93
2021/06/12 09:13:47;;;;;;;2.42;2.22;;;28.30;58.30;;;;;;4992922;28;20051;-91
2021/06/12 09:16:44;;;;;;;3.08;2.38;;;28.10;59.60;;;;;;4998417;28;20109;-92
2021/06/12 09:19:16;;;;;;;2.05;1.73;;;28.50;60.40;;;;;;4964769;28;20319;-92
2021/06/12 09:22:06;;;;;;;4.35;1.90;;;29.70;59.00;;;;;;4997844;28;20061;-92
2021/06/12 09:24:39;;;;;;;5.35;1.88;;;31.00;54.40;;;;;;4979690;28;20057;-92
2021/06/12 09:27:26;;;;;;;5.65;1.80;;;31.50;55.10;;;;;;4991085;28;20079;-91
2021/06/12 09:29:54;;;;;;;3.80;1.70;;;32.30;49.60;;;;;;4997669;28;20046;-93
2021/06/12 09:32:29;;;;;;;1.70;1.60;;;31.90;51.30;;;;;;5006099;28;20080;-93
2021/06/12 09:35:11;;;;;;;2.72;1.80;;;31.20;49.10;;;;;;5002049;28;20073;-91
2021/06/12 09:37:49;;;;;;;7.97;2.00;;;31.30;55.60;;;;;;5000981;28;20081;-93
2021/06/12 09:40:25;;;;;;;5.10;1.92;;;31.80;49.00;;;;;;4998228;28;20047;-92
2021/06/12 09:43:00;;;;;;;1.85;1.35;;;31.80;51.30;;;;;;4984255;28;20054;-93
2021/06/12 09:45:37;;;;;;;2.15;1.40;;;31.40;48.00;;;;;;4991274;28;20054;-93
2021/06/12 09:48:20;;;;;;;1.58;1.45;;;31.30;48.00;;;;;;5000078;28;20054;-92
2021/06/12 09:50:47;;;;;;;1.95;1.73;;;30.50;49.80;;;;;;5000966;28;20156;-93
2021/06/12 09:53:20;;;;;;;3.08;1.70;;;29.80;52.90;;;;;;4999940;28;20054;-90
2021/06/12 09:55:49;;;;;;;3.83;2.30;;;30.30;52.10;;;;;;4995390;28;20050;-91
2021/06/12 09:58:28;;;;;;;2.13;1.70;;;31.20;50.70;;;;;;4985441;28;20108;-91
2021/06/12 10:01:07;;;;;;;4.63;1.85;;;31.80;48.50;;;;;;4992738;28;20117;-93
2021/06/12 10:03:37;;;;;;;1.80;1.65;;;31.80;47.70;;;;;;5001714;28;20115;-91
2021/06/12 10:06:20;;;;;;;4.22;1.50;;;31.50;47.80;;;;;;4987225;28;20069;-93
2021/06/12 10:09:04;;;;;;;3.42;1.45;;;31.00;48.30;;;;;;4981105;28;20125;-93
2021/06/12 10:11:33;;;;;;;4.07;1.80;;;31.60;50.40;;;;;;4999206;28;20085;-90
2021/06/12 10:14:01;;;;;;;5.53;1.50;;;32.30;49.30;;;;;;4997518;28;20066;-91
2021/06/12 10:16:36;;;;;;;2.55;1.40;;;32.60;51.30;;;;;;4999798;28;20070;-92
2021/06/12 10:19:08;;;;;;;2.40;1.30;;;33.20;46.20;;;;;;4998320;28;20046;-91
2021/06/12 10:21:36;;;;;;;2.67;1.65;;;33.50;44.40;;;;;;5003546;28;20042;-93
2021/06/12 10:24:16;;;;;;;2.15;1.38;;;33.90;45.60;;;;;;4991741;28;20132;-91
2021/06/12 10:26:44;;;;;;;2.05;1.52;;;34.20;45.10;;;;;;4994609;28;20046;-91
2021/06/12 10:29:13;;;;;;;2.50;1.52;;;34.30;44.40;;;;;;4989878;28;20380;-91
2021/06/12 10:31:44;;;;;;;1.60;1.25;;;34.20;43.90;;;;;;4999479;28;20084;-93
2021/06/12 10:34:11;;;;;;;1.60;1.50;;;34.40;45.60;;;;;;4989862;28;20049;-91
2021/06/12 10:36:41;;;;;;;1.80;1.70;;;34.60;42.70;;;;;;4979653;28;20046;-92
2021/06/12 10:39:25;;;;;;;6.82;1.80;;;33.50;44.90;;;;;;4981349;28;20424;-90
2021/06/12 10:42:16;;;;;;;5.38;1.60;;;32.80;45.90;;;;;;4977796;28;20125;-93
2021/06/12 10:44:45;;;;;;;1.95;1.52;;;32.80;46.60;;;;;;4997966;28;20352;-90
2021/06/12 10:47:46;;;;;;;3.72;1.48;;;32.70;45.50;;;;;;4998684;28;20066;-92
2021/06/12 10:50:31;;;;;;;3.30;2.10;;;32.80;45.30;;;;;;4993584;28;20255;-92
2021/06/12 10:53:22;;;;;;;1.98;1.45;;;32.70;46.20;;;;;;4999277;28;20050;-92
2021/06/12 10:55:54;;;;;;;2.08;1.63;;;33.20;45.10;;;;;;4998718;28;20054;-91
2021/06/12 10:58:31;;;;;;;1.98;1.50;;;33.70;44.60;;;;;;5002008;28;20382;-92
2021/06/12 11:01:24;;;;;;;3.20;1.70;;;33.80;43.50;;;;;;4984225;28;20045;-92
2021/06/12 11:09:24;;;;;;;1.30;1.20;;;35.30;42.80;;;;;;4998214;28;20042;-92
2021/06/12 11:11:53;;;;;;;2.95;1.30;;;35.90;42.20;;;;;;4969659;28;20397;-92
2021/06/12 11:14:23;;;;;;;6.55;1.67;;;35.50;41.20;;;;;;4979356;28;20121;-92
2021/06/12 11:17:09;;;;;;;1.88;1.50;;;34.70;42.60;;;;;;4980278;28;20051;-91
2021/06/12 11:19:49;;;;;;;1.98;1.40;;;34.80;41.60;;;;;;4998300;28;20053;-92
2021/06/12 11:22:53;;;;;;;3.47;1.40;;;33.90;41.30;;;;;;5004836;28;20399;-93
2021/06/12 11:25:24;;;;;;;2.60;1.17;;;33.80;41.90;;;;;;4997598;28;20491;-92
2021/06/12 11:28:17;;;;;;;1.58;1.20;;;34.30;40.90;;;;;;4981140;28;20101;-89
2021/06/12 11:30:56;;;;;;;2.13;1.30;;;34.20;43.60;;;;;;5000531;28;20104;-92
2021/06/12 11:33:37;;;;;;;1.90;1.42;;;33.90;41.70;;;;;;5002838;28;20042;-94
2021/06/12 11:36:26;;;;;;;1.27;1.17;;;34.20;41.20;;;;;;5002939;28;20187;-93
2021/06/12 11:38:58;;;;;;;1.92;1.15;;;33.70;42.30;;;;;;4974531;28;20046;-91
2021/06/12 11:41:32;;;;;;;1.10;1.00;;;34.10;40.20;;;;;;4992196;28;20084;-93
2021/06/12 11:44:01;;;;;;;2.40;1.20;;;34.30;41.60;;;;;;4998825;28;20042;-92
2021/06/12 11:46:46;;;;;;;2.00;1.60;;;34.10;41.30;;;;;;4979702;28;20050;-92
2021/06/12 11:49:15;;;;;;;1.02;0.93;;;33.50;40.80;;;;;;4997339;28;20042;-94
2021/06/12 11:51:59;;;;;;;;;;;;;;;;;;;;;
2021/06/12 11:54:31;;;;;;;1.45;1.27;;;33.70;40.90;;;;;;5000760;28;20082;-91
2021/06/12 11:57:07;;;;;;;2.67;1.30;;;33.70;40.40;;;;;;4999973;28;20122;-92
2021/06/12 11:59:35;;;;;;;2.50;1.10;;;33.70;40.80;;;;;;4993320;28;20106;-92
2021/06/12 12:02:07;;;;;;;2.63;1.50;;;34.00;39.40;;;;;;4992545;28;20181;-92
2021/06/12 12:04:49;;;;;;;2.22;1.05;;;33.40;43.60;;;;;;4990269;28;20356;-92
2021/06/12 12:07:16;;;;;;;1.35;0.95;;;33.60;40.80;;;;;;5001884;28;20058;-92
2021/06/12 12:09:53;;;;;;;1.10;1.00;;;34.30;38.20;;;;;;4985998;28;20371;-92
2021/06/12 12:12:21;;;;;;;1.40;1.27;;;34.90;38.50;;;;;;5019004;28;20046;-92
2021/06/12 12:14:55;;;;;;;2.10;0.93;;;35.10;38.20;;;;;;4999189;28;20041;-91
2021/06/12 12:17:33;;;;;;;2.88;0.95;;;35.30;38.40;;;;;;4981894;28;20058;-91
2021/06/12 12:20:07;;;;;;;4.50;1.17;;;34.90;37.60;;;;;;4980716;28;20142;-92
2021/06/12 12:22:45;;;;;;;1.63;0.95;;;34.90;39.30;;;;;;4980269;28;20058;-93
2021/06/12 12:25:27;;;;;;;4.43;1.05;;;35.00;39.30;;;;;;4966950;28;20062;-91
2021/06/12 12:28:11;;;;;;;2.38;1.08;;;35.30;40.60;;;;;;4995998;28;20057;-89
2021/06/12 12:30:38;;;;;;;;;;;35.50;37.20;;;;;;4986889;28;20045;-93
2021/06/12 12:33:33;;;;;;;4.72;1.27;;;35.60;39.00;;;;;;5002776;28;20283;-90
2021/06/12 12:36:04;;;;;;;2.63;1.08;;;35.50;37.90;;;;;;4984088;28;20046;-92
2021/06/12 12:38:43;;;;;;;6.03;0.90;;;35.50;38.90;;;;;;5004281;28;20120;-92
2021/06/12 12:41:49;;;;;;;;;;;;;;;;;;;;;
2021/06/12 12:44:44;;;;;;;3.17;0.90;;;35.10;39.90;;;;;;4994617;28;20042;-91
2021/06/12 12:47:47;;;;;;;1.35;1.00;;;35.20;37.80;;;;;;4995078;28;20109;-92
2021/06/12 12:50:15;;;;;;;1.88;0.95;;;34.90;39.90;;;;;;5006485;28;20039;-92
2021/06/12 12:56:03;;;;;;;2.72;1.05;;;35.20;37.30;;;;;;4993432;28;20057;-90
2021/06/12 12:58:36;;;;;;;2.30;0.80;;;34.80;38.60;;;;;;4995633;28;20054;-91
2021/06/12 13:01:20;;;;;;;1.55;0.68;;;34.50;40.40;;;;;;4993713;28;20045;-89
2021/06/12 13:03:56;;;;;;;2.25;0.80;;;34.70;37.80;;;;;;5003764;28;20458;-91
2021/06/12 13:06:34;;;;;;;3.35;0.60;;;34.50;37.40;;;;;;5000225;28;20050;-91
2021/06/12 13:09:30;;;;;;;3.83;0.93;;;34.40;38.60;;;;;;5001437;28;20077;-91
2021/06/12 13:12:21;;;;;;;2.55;1.10;;;34.50;38.10;;;;;;5002612;28;20042;-92
2021/06/12 13:18:23;;;;;;;1.17;0.70;;;34.50;39.20;;;;;;4986756;28;20057;-88
2021/06/12 13:21:12;;;;;;;2.00;0.70;;;34.50;40.00;;;;;;4992677;28;20145;-90
2021/06/12 13:24:08;;;;;;;2.88;0.73;;;34.20;39.40;;;;;;5001597;28;20177;-93
2021/06/12 13:26:43;;;;;;;2.97;0.75;;;34.10;38.70;;;;;;4988735;28;20105;-90